Time;durP1;ratioP1;P1;durP2;ratioP2;P2;SDS_P1;SDS_P2;PMS_P1;PMS_P2;Temp;Humidity;BMP_temperature;BMP_pressure;BME280_temperature;BME280_humidity;BME280_pressure;Samples;Min_cycle;Max_cycle;Signal;HPM_P1;HPM_P2
2023/01/16 00:02:26;;;;;;;;;2.50;2.00;;;;;3.26;96.34;97560.25;4964072;28;103955;-72
2023/01/16 00:04:52;;;;;;;;;2.25;2.00;;;;;3.23;96.87;97555.28;4961654;28;102345;-72
2023/01/16 00:07:19;;;;;;;;;1.00;1.00;;;;;3.20;97.43;97554.84;4959324;28;102296;-71
2023/01/16 00:09:46;;;;;;;;;1.00;1.00;;;;;3.14;96.73;97557.22;4972646;28;102325;-72
2023/01/16 00:12:13;;;;;;;;;0.00;0.00;;;;;3.10;96.87;97550.56;4956512;28;108483;-72
2023/01/16 00:14:40;;;;;;;;;1.25;1.00;;;;;3.09;96.63;97550.75;4960955;28;102050;-72
2023/01/16 00:17:07;;;;;;;;;1.00;1.00;;;;;3.04;97.00;97553.94;4951326;28;102242;-72
2023/01/16 00:19:34;;;;;;;;;3.50;2.00;;;;;3.00;96.41;97559.81;4968979;28;102103;-73
2023/01/16 00:22:02;;;;;;;;;5.00;2.00;;;;;2.98;97.31;97556.50;4961477;28;104024;-72
2023/01/16 00:24:29;;;;;;;;;2.00;1.00;;;;;2.95;97.82;97556.84;4939501;28;103094;-72
2023/01/16 00:26:56;;;;;;;;;1.50;1.50;;;;;2.91;98.10;97561.72;4960196;28;101978;-72
2023/01/16 00:29:23;;;;;;;;;1.25;0.50;;;;;2.87;96.88;97554.25;4968638;28;102382;-72
2023/01/16 00:31:50;;;;;;;;;1.00;1.00;;;;;2.86;97.12;97544.59;4963743;28;104281;-72
2023/01/16 00:34:17;;;;;;;;;0.75;0.75;;;;;2.81;97.27;97544.28;4963808;28;102283;-72
2023/01/16 00:36:45;;;;;;;;;1.00;1.00;;;;;2.77;98.12;97545.66;4965785;28;102005;-73
2023/01/16 00:39:12;;;;;;;;;1.00;0.00;;;;;2.75;98.15;97553.03;4967421;28;102161;-72
2023/01/16 00:41:39;;;;;;;;;2.75;1.00;;;;;2.70;98.44;97554.34;4964792;28;104135;-73
2023/01/16 00:44:06;;;;;;;;;0.00;0.00;;;;;2.66;97.63;97542.38;4969956;28;102566;-73
2023/01/16 00:46:33;;;;;;;;;1.00;1.00;;;;;2.60;97.23;97544.94;4970650;28;102561;-73
2023/01/16 00:49:00;;;;;;;;;2.50;2.00;;;;;2.57;97.35;97542.59;4963762;28;102542;-72
2023/01/16 00:51:26;;;;;;;;;1.25;1.00;;;;;2.50;96.64;97553.16;4975798;28;103991;-73
2023/01/16 00:53:53;;;;;;;;;1.50;1.50;;;;;2.46;96.27;97551.88;4968737;28;104260;-72
2023/01/16 00:56:20;;;;;;;;;0.25;0.25;;;;;2.41;96.58;97554.22;4964615;28;102179;-71
2023/01/16 00:58:47;;;;;;;;;1.00;1.00;;;;;2.35;97.23;97551.41;4964234;28;102017;-73
2023/01/16 01:01:14;;;;;;;;;3.00;2.75;;;;;2.19;96.93;97533.69;4964955;28;110329;-73
2023/01/16 01:03:41;;;;;;;;;2.25;2.00;;;;;2.24;97.19;97552.66;4959590;28;102364;-72
2023/01/16 01:06:13;;;;;;;;;2.25;2.25;;;;;2.18;96.82;97537.34;4963221;28;102424;-72
2023/01/16 01:08:40;;;;;;;;;2.50;2.00;;;;;2.13;96.39;97545.03;4941712;28;102472;-73
2023/01/16 01:11:13;;;;;;;;;2.25;2.25;;;;;2.08;97.42;97542.06;4953871;28;103491;-73
2023/01/16 01:13:41;;;;;;;;;1.00;1.00;;;;;2.02;97.42;97542.75;4953702;27;103020;-74
2023/01/16 01:16:10;;;;;;;;;0.75;0.75;;;;;1.97;97.68;97542.44;4970922;28;103734;-73
2023/01/16 01:18:37;;;;;;;;;1.00;1.00;;;;;1.93;97.54;97533.97;4958109;28;102430;-73
2023/01/16 01:21:22;;;;;;;;;5.00;3.50;;;;;1.87;97.84;97536.50;4956434;28;107586;-73
2023/01/16 01:23:49;;;;;;;;;8.00;7.00;;;;;1.80;99.36;97536.38;4967528;27;102246;-72
2023/01/16 01:26:17;;;;;;;;;5.50;5.00;;;;;1.73;99.15;97538.03;4967164;28;102441;-73
2023/01/16 01:28:44;;;;;;;;;4.75;4.75;;;;;1.63;99.41;97519.56;4964297;28;102050;-73
2023/01/16 01:31:12;;;;;;;;;5.00;3.50;;;;;1.60;99.89;97511.94;4969063;28;104039;-73
2023/01/16 01:33:41;;;;;;;;;3.25;3.25;;;;;1.66;100.00;97529.91;4936197;28;103482;-73
2023/01/16 01:36:09;;;;;;;;;3.25;2.50;;;;;1.65;99.69;97528.25;4929591;28;104817;-74
2023/01/16 01:38:36;;;;;;;;;2.00;1.00;;;;;1.60;98.99;97535.91;4956675;28;102613;-73
2023/01/16 01:41:05;;;;;;;;;1.50;1.50;;;;;1.58;99.11;97537.91;4946487;28;103988;-73
2023/01/16 01:44:01;;;;;;;;;5.00;2.50;;;;;1.57;98.08;97527.44;4939664;28;102321;-73
2023/01/16 01:46:46;;;;;;;;;3.25;2.00;;;;;1.54;98.84;97530.41;4960447;28;102160;-73
2023/01/16 01:49:27;;;;;;;;;2.00;2.00;;;;;1.50;98.55;97537.94;4965876;28;102110;-73
2023/01/16 01:51:59;;;;;;;;;1.75;0.00;;;;;1.47;98.39;97524.97;4965767;27;108621;-73
2023/01/16 01:54:33;;;;;;;;;1.00;1.00;;;;;1.44;97.87;97525.28;4961917;28;102422;-73
2023/01/16 01:57:10;;;;;;;;;0.75;0.75;;;;;1.40;97.70;97520.50;4970999;28;102482;-72
2023/01/16 01:59:41;;;;;;;;;1.75;1.50;;;;;1.39;97.79;97525.00;4958487;28;101994;-72
2023/01/16 02:02:14;;;;;;;;;2.00;2.00;;;;;1.38;97.59;97515.34;4959818;28;103928;-73
2023/01/16 02:04:43;;;;;;;;;0.00;0.00;;;;;1.37;98.60;97515.50;4958663;28;103250;-73
2023/01/16 02:07:14;;;;;;;;;1.00;0.75;;;;;1.35;98.28;97510.34;4964456;28;102265;-73
2023/01/16 02:09:54;;;;;;;;;1.00;1.00;;;;;1.33;98.40;97491.03;4969549;28;103096;-74
2023/01/16 02:12:42;;;;;;;;;0.00;0.00;;;;;1.34;98.72;97487.38;4963352;28;107419;-73
2023/01/16 02:15:27;;;;;;;;;0.50;0.50;;;;;1.32;98.15;97486.72;4961793;28;103765;-73
2023/01/16 02:21:33;;;;;;;;;0.00;0.00;;;;;1.29;99.08;97481.75;4968964;27;102089;-73
2023/01/16 02:24:51;;;;;;;;;0.00;0.00;;;;;1.28;98.91;97474.75;4950421;28;107740;-73
2023/01/16 02:27:49;;;;;;;;;0.00;0.00;;;;;1.28;99.46;97474.75;4950925;28;102542;-73
2023/01/16 02:31:08;;;;;;;;;1.50;0.25;;;;;1.30;99.33;97483.41;4948383;28;102271;-73
2023/01/16 02:33:47;;;;;;;;;0.00;0.00;;;;;1.30;99.23;97484.25;4957129;28;103059;-74
2023/01/16 02:36:34;;;;;;;;;0.00;0.00;;;;;1.31;99.10;97485.03;4969965;28;103979;-74
2023/01/16 02:39:16;;;;;;;;;4.50;0.50;;;;;1.29;99.52;97490.56;4963773;28;102449;-74
2023/01/16 02:41:46;;;;;;;;;0.00;0.00;;;;;1.31;99.96;97490.38;4956842;28;102275;-74
2023/01/16 02:44:31;;;;;;;;;0.00;0.00;;;;;1.31;99.41;97479.72;4959637;28;102109;-73
2023/01/16 02:47:40;;;;;;;;;0.00;0.00;;;;;1.32;100.00;97473.41;4959572;28;108893;-74
2023/01/16 02:50:21;;;;;;;;;0.50;0.00;;;;;1.31;99.33;97475.22;4959009;28;102718;-74
2023/01/16 02:53:00;;;;;;;;;0.00;0.00;;;;;1.32;99.81;97481.38;4971916;28;102309;-74
2023/01/16 02:55:36;;;;;;;;;0.00;0.00;;;;;1.31;99.61;97485.03;4964068;28;102384;-73
2023/01/16 02:58:07;;;;;;;;;0.00;0.00;;;;;1.32;99.79;97486.72;4965845;28;103800;-73
2023/01/16 03:00:35;;;;;;;;;1.00;0.00;;;;;1.33;100.00;97480.38;4940106;28;102428;-73
2023/01/16 03:03:03;;;;;;;;;0.00;0.00;;;;;1.14;99.54;97444.31;4947463;28;102934;-73
2023/01/16 03:05:42;;;;;;;;;1.00;0.25;;;;;1.31;99.87;97466.41;4935697;28;102242;-73
2023/01/16 03:08:23;;;;;;;;;0.00;0.00;;;;;1.30;99.68;97468.25;4952831;28;104030;-73
2023/01/16 03:11:01;;;;;;;;;1.00;1.00;;;;;1.28;99.65;97475.56;4978149;28;102351;-74
2023/01/16 03:13:49;;;;;;;;;0.25;0.25;;;;;1.30;99.57;97472.75;4964792;28;102524;-73
2023/01/16 03:16:36;;;;;;;;;0.25;0.25;;;;;1.30;100.00;97467.44;4984195;27;102321;-73
2023/01/16 03:19:13;;;;;;;;;0.00;0.00;;;;;1.30;99.91;97470.94;4961937;28;108650;-73
2023/01/16 03:22:01;;;;;;;;;0.50;0.00;;;;;1.33;100.00;97467.06;4970471;28;102161;-73
2023/01/16 03:24:47;;;;;;;;;0.00;0.00;;;;;1.35;100.00;97462.44;4957993;28;102148;-73
2023/01/16 03:28:18;;;;;;;;;0.00;0.00;;;;;1.37;100.00;97460.41;4964407;28;103844;-73
2023/01/16 03:31:05;;;;;;;;;1.00;1.00;;;;;1.38;100.00;97459.41;4864109;28;108618;-72
2023/01/16 03:34:19;;;;;;;;;0.50;0.00;;;;;1.42;100.00;97457.22;4957401;28;102211;-72
2023/01/16 03:36:56;;;;;;;;;1.00;1.00;;;;;1.45;100.00;97460.38;4962549;28;102083;-73
2023/01/16 03:39:29;;;;;;;;;0.25;0.25;;;;;1.48;100.00;97452.06;4968700;28;102485;-73
2023/01/16 03:42:04;;;;;;;;;0.50;0.50;;;;;1.52;100.00;97457.88;4964718;28;104002;-73
2023/01/16 03:44:37;;;;;;;;;0.75;0.75;;;;;1.52;99.70;97450.72;4965996;27;102504;-72
2023/01/16 03:47:10;;;;;;;;;2.00;1.00;;;;;1.57;99.90;97444.88;4961959;28;101966;-73
2023/01/16 03:49:43;;;;;;;;;1.00;1.00;;;;;1.56;99.71;97438.69;4967759;28;102192;-74
2023/01/16 03:52:14;;;;;;;;;0.50;0.00;;;;;1.60;100.00;97441.84;4967250;28;103939;-73
2023/01/16 03:54:49;;;;;;;;;4.75;4.00;;;;;1.57;98.81;97437.69;4971065;28;102611;-73
2023/01/16 03:57:22;;;;;;;;;4.50;2.00;;;;;1.50;99.59;97422.56;4979111;28;102588;-73
2023/01/16 03:59:52;;;;;;;;;1.25;1.00;;;;;1.61;99.18;97439.00;4964326;28;102401;-73
2023/01/16 04:02:21;;;;;;;;;1.00;0.50;;;;;1.62;98.82;97440.66;4964538;28;109385;-73
2023/01/16 04:05:17;;;;;;;;;0.75;0.75;;;;;1.65;99.04;97440.31;4963926;28;102381;-74
2023/01/16 04:07:51;;;;;;;;;1.00;1.00;;;;;1.65;98.76;97429.66;4970965;28;102207;-73
2023/01/16 04:10:24;;;;;;;;;1.00;1.00;;;;;1.60;98.25;97415.19;4971479;27;102027;-73
2023/01/16 04:13:03;;;;;;;;;1.00;1.00;;;;;1.67;98.01;97437.47;4977367;28;109517;-72
2023/01/16 04:15:33;;;;;;;;;1.00;1.00;;;;;1.66;98.53;97431.34;4963378;28;103780;-73
2023/01/16 04:18:01;;;;;;;;;1.00;0.25;;;;;1.67;98.23;97416.97;4963570;28;101880;-72
2023/01/16 04:20:30;;;;;;;;;4.25;3.25;;;;;1.67;98.19;97411.66;4957521;28;102263;-73
2023/01/16 04:22:57;;;;;;;;;1.50;1.00;;;;;1.66;97.58;97414.53;4966216;28;103021;-72
2023/01/16 04:25:24;;;;;;;;;2.25;2.00;;;;;1.66;98.05;97414.53;4973566;28;102455;-74
2023/01/16 04:27:51;;;;;;;;;1.00;1.00;;;;;1.63;98.34;97404.19;4954233;28;102155;-73
2023/01/16 04:30:18;;;;;;;;;2.00;1.00;;;;;1.62;97.63;97402.56;4960828;28;102387;-73
2023/01/16 04:32:45;;;;;;;;;2.75;2.00;;;;;1.61;97.33;97400.88;4972059;28;104315;-73
2023/01/16 04:35:13;;;;;;;;;0.75;0.75;;;;;1.61;97.57;97398.22;4965386;28;102786;-73
2023/01/16 04:37:40;;;;;;;;;3.50;1.00;;;;;1.60;97.33;97386.72;4957900;28;102425;-73
2023/01/16 04:40:08;;;;;;;;;0.00;0.00;;;;;1.56;97.08;97372.09;4970133;27;102514;-74
2023/01/16 04:42:35;;;;;;;;;0.75;0.00;;;;;1.57;97.47;97367.63;4934094;28;105236;-73
2023/01/16 04:45:03;;;;;;;;;0.75;0.50;;;;;1.57;97.22;97368.44;4947687;28;102564;-73
2023/01/16 04:47:30;;;;;;;;;2.00;2.00;;;;;1.58;97.07;97369.25;4966035;28;101976;-74
2023/01/16 04:49:57;;;;;;;;;1.00;1.00;;;;;1.60;96.87;97368.09;4968980;28;102128;-74
2023/01/16 04:52:24;;;;;;;;;3.00;2.00;;;;;1.59;97.28;97358.44;4964589;28;104114;-73
2023/01/16 04:54:51;;;;;;;;;2.75;1.50;;;;;1.59;96.79;97361.09;4965504;28;102452;-74
2023/01/16 04:57:18;;;;;;;;;1.00;1.00;;;;;1.60;96.75;97353.94;4968868;27;102515;-73
2023/01/16 04:59:47;;;;;;;;;2.00;1.00;;;;;1.58;96.20;97359.44;4954850;28;102485;-73
2023/01/16 05:02:14;;;;;;;;;2.00;1.50;;;;;1.53;96.17;97351.13;4968692;28;104012;-73
2023/01/16 05:04:41;;;;;;;;;1.00;1.00;;;;;1.56;96.89;97350.78;4979136;27;102493;-72
2023/01/16 05:07:08;;;;;;;;;0.00;0.00;;;;;1.57;97.28;97346.31;4973111;27;102383;-73
2023/01/16 05:09:36;;;;;;;;;1.00;1.00;;;;;1.56;96.37;97347.31;4979975;28;102658;-73
2023/01/16 05:12:03;;;;;;;;;2.00;1.00;;;;;1.56;96.66;97352.63;4958086;28;104272;-74
2023/01/16 05:14:30;;;;;;;;;1.00;1.00;;;;;1.54;96.31;97342.13;4955521;28;102666;-74
2023/01/16 05:16:57;;;;;;;;;1.00;1.00;;;;;1.41;96.14;97331.22;4965152;28;102341;-74
2023/01/16 05:19:24;;;;;;;;;0.00;0.00;;;;;1.52;96.00;97352.16;4964268;28;102393;-74
2023/01/16 05:21:51;;;;;;;;;1.00;1.00;;;;;1.51;96.67;97339.84;4955870;28;103991;-73
2023/01/16 05:24:18;;;;;;;;;2.50;1.00;;;;;1.51;96.25;97334.50;4976296;28;101980;-73
2023/01/16 05:26:45;;;;;;;;;1.00;1.00;;;;;1.50;96.02;97335.50;4950025;28;104969;-74
2023/01/16 05:29:12;;;;;;;;;0.25;0.00;;;;;1.48;96.49;97328.72;4972154;28;102512;-73
2023/01/16 05:31:39;;;;;;;;;1.00;0.00;;;;;1.44;95.96;97320.22;4942027;28;104008;-73
2023/01/16 05:34:08;;;;;;;;;2.00;1.50;;;;;1.52;95.74;97330.00;4965320;28;102244;-73
2023/01/16 05:36:36;;;;;;;;;1.00;0.00;;;;;1.51;95.21;97328.34;4964074;28;106171;-73
2023/01/16 05:39:03;;;;;;;;;0.75;0.00;;;;;1.53;95.00;97324.50;4971026;28;102332;-73
2023/01/16 05:41:30;;;;;;;;;0.50;0.00;;;;;1.54;95.33;97320.81;4960693;28;104161;-73
2023/01/16 05:43:56;;;;;;;;;0.00;0.00;;;;;1.56;94.74;97324.16;4962487;28;102239;-73
2023/01/16 05:46:24;;;;;;;;;1.00;0.00;;;;;1.55;94.30;97327.81;4965948;27;102013;-73
2023/01/16 05:48:51;;;;;;;;;0.00;0.00;;;;;1.58;94.53;97330.13;4963236;28;104711;-73
2023/01/16 05:51:18;;;;;;;;;0.75;0.75;;;;;1.58;94.19;97331.94;4974728;27;104015;-73
2023/01/16 05:53:51;;;;;;;;;8.00;6.00;;;;;1.49;93.60;97325.00;4968000;28;102071;-73
2023/01/16 05:56:21;;;;;;;;;4.75;4.75;;;;;1.51;94.43;97329.19;4968819;28;103227;-73
2023/01/16 05:58:49;;;;;;;;;2.00;2.00;;;;;1.50;93.64;97322.19;4967077;28;101955;-74
2023/01/16 06:01:16;;;;;;;;;2.00;1.50;;;;;1.48;94.07;97324.22;4948975;28;108412;-74
2023/01/16 06:03:44;;;;;;;;;1.00;0.50;;;;;1.48;94.75;97312.72;4958474;28;102322;-74
2023/01/16 06:06:11;;;;;;;;;2.00;1.00;;;;;1.47;94.39;97311.06;4933413;28;102306;-73
2023/01/16 06:08:38;;;;;;;;;1.25;0.00;;;;;1.45;94.44;97311.22;4961047;28;102388;-73
2023/01/16 06:11:06;;;;;;;;;0.00;0.00;;;;;1.45;93.96;97310.41;4967534;28;103480;-73
2023/01/16 06:13:33;;;;;;;;;1.25;0.00;;;;;1.46;94.61;97314.72;4949910;28;103344;-74
2023/01/16 06:16:00;;;;;;;;;0.00;0.00;;;;;1.46;93.94;97296.91;4961382;28;102279;-73
2023/01/16 06:18:27;;;;;;;;;1.00;1.00;;;;;1.43;94.06;97305.25;4967511;28;103754;-74
2023/01/16 06:20:54;;;;;;;;;2.25;1.50;;;;;1.43;94.66;97302.59;4953979;28;103985;-74
2023/01/16 06:23:21;;;;;;;;;1.50;1.25;;;;;1.41;94.83;97296.59;4963485;28;110285;-74
2023/01/16 06:25:49;;;;;;;;;5.00;3.00;;;;;1.42;95.06;97295.63;4969788;28;102310;-73
2023/01/16 06:28:16;;;;;;;;;5.00;4.00;;;;;1.44;94.26;97301.56;4967865;28;102162;-74
2023/01/16 06:30:44;;;;;;;;;4.75;4.75;;;;;1.36;94.50;97277.66;4968571;28;102899;-73
2023/01/16 06:33:11;;;;;;;;;5.75;4.50;;;;;1.46;93.95;97280.09;4970709;28;103862;-74
2023/01/16 06:35:38;;;;;;;;;5.75;3.25;;;;;1.48;93.82;97292.25;4969085;28;102033;-74
2023/01/16 06:38:05;;;;;;;;;3.50;3.00;;;;;1.50;94.00;97287.56;4958183;28;102044;-74
2023/01/16 06:40:32;;;;;;;;;1.50;1.50;;;;;1.50;94.22;97282.22;4966735;28;103938;-73
2023/01/16 06:42:59;;;;;;;;;4.00;3.25;;;;;1.52;93.72;97284.72;4958913;28;102270;-73
2023/01/16 06:45:28;;;;;;;;;5.00;3.25;;;;;1.49;93.79;97272.59;4964669;28;103753;-73
2023/01/16 06:47:55;;;;;;;;;8.00;7.00;;;;;1.49;94.52;97269.09;4967466;28;102053;-74
2023/01/16 06:50:22;;;;;;;;;6.00;6.00;;;;;1.52;94.48;97271.41;4955793;28;103995;-73
2023/01/16 06:52:49;;;;;;;;;5.50;4.00;;;;;1.57;94.28;97275.22;4961245;28;102116;-74
2023/01/16 06:55:16;;;;;;;;;9.25;6.75;;;;;1.53;95.12;97265.88;4934023;28;103897;-74
2023/01/16 06:57:44;;;;;;;;;6.00;6.00;;;;;1.59;94.39;97267.03;4966468;28;102401;-74
2023/01/16 07:00:12;;;;;;;;;4.50;4.50;;;;;1.62;94.31;97261.38;4959528;28;104064;-73
2023/01/16 07:02:40;;;;;;;;;4.50;3.00;;;;;1.61;94.32;97262.38;4964352;28;102646;-73
2023/01/16 07:05:08;;;;;;;;;5.00;4.00;;;;;1.62;93.88;97258.69;4961471;28;102332;-74
2023/01/16 07:07:36;;;;;;;;;5.50;5.00;;;;;1.66;93.85;97266.16;4955558;28;102593;-73
2023/01/16 07:10:04;;;;;;;;;6.75;6.25;;;;;1.62;93.41;97256.84;4965172;28;103692;-74
2023/01/16 07:12:31;;;;;;;;;11.00;9.00;;;;;1.71;93.57;97273.63;4963027;28;102552;-73
2023/01/16 07:23:21;;;;;;;;;6.75;6.75;;;;;1.87;92.79;97267.31;4962768;28;102290;-73
2023/01/16 07:25:50;;;;;;;;;10.00;8.50;;;;;1.87;92.47;97252.16;4952029;28;102487;-73
2023/01/16 07:28:18;;;;;;;;;8.50;5.75;;;;;1.94;92.56;97254.91;4957200;28;102670;-73
2023/01/16 07:30:46;;;;;;;;;6.50;5.00;;;;;1.96;93.02;97255.56;4960812;28;104097;-73
2023/01/16 07:33:14;;;;;;;;;8.50;6.50;;;;;1.98;92.59;97257.03;4967443;28;104418;-74
2023/01/16 07:35:42;;;;;;;;;8.00;8.00;;;;;2.01;92.05;97266.53;4960765;28;102189;-73
2023/01/16 07:38:09;;;;;;;;;9.00;7.00;;;;;2.03;91.93;97254.66;4966900;28;102393;-74
2023/01/16 07:40:36;;;;;;;;;11.00;9.00;;;;;2.08;91.60;97254.13;4970963;27;104031;-76
2023/01/16 07:43:03;;;;;;;;;14.75;10.25;;;;;2.12;92.20;97247.41;4977012;28;102488;-72
2023/01/16 07:45:30;;;;;;;;;11.75;9.25;;;;;2.15;91.15;97244.41;4968971;28;102449;-72
2023/01/16 07:47:57;;;;;;;;;14.00;10.75;;;;;2.19;92.14;97235.03;4994710;28;102382;-73
2023/01/16 07:50:24;;;;;;;;;9.00;7.00;;;;;2.28;91.61;97235.78;4964503;28;103806;-73
2023/01/16 07:52:51;;;;;;;;;5.75;4.50;;;;;2.34;90.97;97235.06;4967080;28;102336;-73
2023/01/16 07:55:18;;;;;;;;;9.25;6.75;;;;;2.44;90.78;97225.75;4961870;28;102383;-72
2023/01/16 07:57:45;;;;;;;;;6.25;6.00;;;;;2.53;90.06;97221.97;4964886;27;102057;-73
2023/01/16 08:00:13;;;;;;;;;3.00;3.00;;;;;2.63;90.06;97216.38;4979086;28;103958;-73
2023/01/16 08:02:40;;;;;;;;;6.50;5.75;;;;;2.67;89.32;97206.97;4940779;28;102185;-73
2023/01/16 08:05:09;;;;;;;;;8.00;6.75;;;;;2.73;88.85;97194.75;4969240;28;102318;-73
2023/01/16 08:07:36;;;;;;;;;10.00;9.75;;;;;2.83;88.59;97197.94;4970046;28;102212;-73
2023/01/16 08:10:05;;;;;;;;;10.00;7.75;;;;;2.91;88.44;97192.50;4964338;28;104046;-73
2023/01/16 08:12:32;;;;;;;;;8.75;6.00;;;;;2.98;87.82;97182.72;4960467;28;102596;-73
2023/01/16 08:14:59;;;;;;;;;8.50;7.00;;;;;3.05;86.75;97188.97;4980577;28;102297;-73
2023/01/16 08:17:26;;;;;;;;;11.00;10.75;;;;;3.07;86.22;97176.25;4974630;28;102214;-73
2023/01/16 08:19:55;;;;;;;;;15.75;13.00;;;;;3.11;85.90;97177.50;4982533;27;104162;-73
2023/01/16 08:22:22;;;;;;;;;20.50;18.00;;;;;3.19;87.38;97169.41;4993434;28;102093;-73
2023/01/16 08:24:49;;;;;;;;;15.00;11.75;;;;;3.25;85.62;97167.78;4967085;28;102315;-73
2023/01/16 08:27:16;;;;;;;;;9.50;7.00;;;;;3.32;85.83;97169.53;4966933;28;102018;-73
2023/01/16 08:29:43;;;;;;;;;11.00;9.50;;;;;3.38;86.08;97168.75;4956087;28;104184;-73
2023/01/16 08:32:10;;;;;;;;;16.25;15.75;;;;;3.40;86.27;97163.22;4971638;28;103284;-74
2023/01/16 08:34:37;;;;;;;;;10.50;9.50;;;;;3.47;85.02;97167.59;4951368;27;102136;-73
2023/01/16 08:37:06;;;;;;;;;10.75;10.50;;;;;3.52;84.52;97159.84;4954550;28;102409;-73
2023/01/16 08:39:33;;;;;;;;;15.25;12.75;;;;;3.61;84.03;97160.53;4950416;28;104471;-73
2023/01/16 08:53:05;;;;;;;;;12.00;8.75;;;;;3.76;82.30;97149.78;4972417;27;102188;-74
2023/01/16 08:55:32;;;;;;;;;12.75;10.50;;;;;3.78;81.52;97142.41;4984468;28;101966;-74
2023/01/16 08:58:00;;;;;;;;;13.25;11.25;;;;;3.81;81.54;97148.19;4982641;28;102343;-74
2023/01/16 09:00:28;;;;;;;;;14.50;11.00;;;;;3.82;82.08;97146.34;4969186;27;103954;-74
2023/01/16 09:02:58;;;;;;;;;14.75;12.50;;;;;3.79;81.28;97134.16;4970702;28;102359;-73
2023/01/16 09:05:25;;;;;;;;;11.25;11.00;;;;;3.84;82.41;97125.56;4967758;28;102208;-74
2023/01/16 09:07:52;;;;;;;;;6.50;6.00;;;;;3.92;82.39;97120.06;4960779;28;102434;-74
2023/01/16 09:10:20;;;;;;;;;8.00;7.00;;;;;3.98;81.98;97111.25;4969097;28;104019;-74
2023/01/16 09:15:33;;;;;;;;;9.50;7.00;;;;;4.05;81.39;97107.59;4955595;27;102053;-73
2023/01/16 09:18:00;;;;;;;;;7.50;7.50;;;;;4.07;80.80;97099.38;4948819;28;102087;-73
2023/01/16 09:20:27;;;;;;;;;8.00;6.25;;;;;4.12;81.14;97088.09;4948465;28;104210;-73
2023/01/16 09:23:01;;;;;;;;;7.25;6.75;;;;;4.19;80.61;97087.09;4973673;28;102297;-73
2023/01/16 09:25:30;;;;;;;;;5.25;5.25;;;;;4.16;80.13;97086.69;4961579;28;102885;-73
2023/01/16 09:27:58;;;;;;;;;7.00;6.00;;;;;4.13;80.33;97071.03;4971573;28;102392;-73
2023/01/16 09:30:27;;;;;;;;;6.00;5.00;;;;;4.24;80.06;97073.97;4981163;28;103875;-73
2023/01/16 09:32:54;;;;;;;;;6.75;5.50;;;;;4.22;78.87;97076.03;4963690;28;102187;-73
2023/01/16 09:35:21;;;;;;;;;3.00;3.00;;;;;4.20;79.95;97067.34;4942791;28;102272;-73
2023/01/16 09:37:48;;;;;;;;;6.00;5.25;;;;;4.29;80.47;97062.66;4972485;28;102243;-73
2023/01/16 09:40:22;;;;;;;;;6.50;5.75;;;;;4.30;78.96;97065.16;4974444;28;103007;-73
2023/01/16 09:45:56;;;;;;;;;7.75;7.00;;;;;4.46;80.04;97037.19;4960868;27;101850;-73
2023/01/16 09:48:28;;;;;;;;;3.00;3.00;;;;;4.56;79.36;97034.16;4968845;28;102449;-71
2023/01/16 09:51:01;;;;;;;;;5.50;5.00;;;;;4.57;79.23;97033.13;4950096;28;103878;-73
2023/01/16 09:59:23;;;;;;;;;10.50;10.00;;;;;4.60;79.85;97008.63;4972019;28;102343;-73
2023/01/16 10:02:01;;;;;;;;;7.50;6.25;;;;;4.53;78.12;96975.69;4967982;28;108483;-72
2023/01/16 10:04:29;;;;;;;;;9.50;8.00;;;;;4.66;79.17;96997.94;4949962;28;102108;-73
2023/01/16 10:07:34;;;;;;;;;7.00;7.00;;;;;4.76;78.40;96994.88;4956698;28;107554;-73
2023/01/16 10:10:32;;;;;;;;;9.50;7.25;;;;;4.75;79.68;96977.16;4962368;28;102359;-72
2023/01/16 10:13:39;;;;;;;;;17.00;15.25;;;;;4.56;81.63;96984.13;4949716;28;108444;-73
2023/01/16 10:16:26;;;;;;;;;30.00;27.75;;;;;4.33;82.75;96976.44;4952599;28;102526;-73
2023/01/16 10:19:09;;;;;;;;;29.25;23.75;;;;;4.23;83.60;96972.53;4945306;28;102221;-73
2023/01/16 10:21:47;;;;;;;;;23.25;19.00;;;;;4.13;83.48;96975.56;4945354;28;102320;-74
2023/01/16 10:24:34;;;;;;;;;19.00;16.25;;;;;4.12;85.22;96965.06;4959183;28;103855;-74
2023/01/16 10:27:17;;;;;;;;;17.75;16.00;;;;;3.99;85.24;96963.19;4964275;27;102212;-74
2023/01/16 10:30:00;;;;;;;;;20.00;16.00;;;;;3.88;85.39;96955.72;4967212;28;102379;-74
2023/01/16 10:32:38;;;;;;;;;14.25;12.75;;;;;3.92;85.56;96946.25;4963063;28;102185;-73
2023/01/16 10:35:11;;;;;;;;;17.75;14.75;;;;;3.93;86.83;96937.22;4980336;28;103975;-74
2023/01/16 10:37:40;;;;;;;;;15.50;11.25;;;;;3.86;86.50;96936.38;4962893;28;102415;-74
2023/01/16 10:40:16;;;;;;;;;18.50;14.50;;;;;3.87;87.24;96932.69;4962219;28;103123;-73
2023/01/16 10:51:08;;;;;;;;;12.25;11.00;;;;;4.08;86.80;96908.50;4964749;28;102186;-73
2023/01/16 10:53:37;;;;;;;;;13.25;10.75;;;;;4.06;86.16;96902.50;4971596;28;102425;-74
2023/01/16 10:56:05;;;;;;;;;11.25;11.25;;;;;4.20;85.94;96885.47;4975038;28;104052;-74
2023/01/16 10:58:38;;;;;;;;;9.75;8.00;;;;;4.50;85.46;96892.09;4961037;28;102326;-74
2023/01/16 11:01:14;;;;;;;;;6.25;6.00;;;;;4.65;83.76;96875.81;4967314;28;102174;-74
2023/01/16 11:03:58;;;;;;;;;7.00;7.00;;;;;4.78;82.72;96872.31;4948207;28;102993;-73
2023/01/16 11:06:28;;;;;;;;;5.00;4.00;;;;;4.74;82.83;96858.53;4955536;28;107969;-73
2023/01/16 11:09:05;;;;;;;;;9.25;8.00;;;;;4.81;83.76;96850.50;4959545;28;102003;-73
2023/01/16 11:20:31;;;;;;;;;6.00;5.00;;;;;5.33;79.55;96828.94;4966385;28;102140;-73
2023/01/16 11:23:14;;;;;;;;;7.25;6.50;;;;;5.30;80.10;96817.84;4973588;28;102344;-73
2023/01/16 11:25:44;;;;;;;;;6.00;5.25;;;;;5.37;78.35;96819.44;4989693;28;102178;-73
2023/01/16 11:28:22;;;;;;;;;2.00;2.00;;;;;5.37;78.20;96807.91;4963796;28;103014;-74
2023/01/16 11:30:56;;;;;;;;;6.00;6.00;;;;;5.43;79.13;96800.88;4980441;28;102188;-72
2023/01/16 11:33:40;;;;;;;;;8.75;6.75;;;;;5.55;78.94;96789.28;4986265;27;102558;-74
2023/01/16 11:36:07;;;;;;;;;3.00;2.25;;;;;5.72;78.07;96790.41;4963088;28;102815;-73
2023/01/16 11:38:38;;;;;;;;;7.50;6.25;;;;;5.56;77.63;96780.19;4971263;28;103416;-73
2023/01/16 11:41:09;;;;;;;;;7.00;6.00;;;;;5.44;77.72;96776.56;4963089;28;102286;-73
2023/01/16 11:46:28;;;;;;;;;6.75;5.75;;;;;5.47;76.13;96769.94;4974338;27;102019;-73
2023/01/16 11:49:01;;;;;;;;;5.75;5.00;;;;;5.59;77.77;96760.16;4955380;28;108921;-73
2023/01/16 11:51:31;;;;;;;;;6.00;6.00;;;;;5.80;75.62;96757.19;4962770;27;102040;-73
2023/01/16 11:54:05;;;;;;;;;3.00;2.25;;;;;6.05;75.08;96746.50;4962769;28;102400;-73
2023/01/16 11:56:56;;;;;;;;;3.00;2.50;;;;;6.18;74.89;96731.13;4963467;28;102367;-73
2023/01/16 11:59:29;;;;;;;;;4.25;4.25;;;;;6.15;73.66;96741.47;4949372;28;108636;-73
2023/01/16 12:02:41;;;;;;;;;4.50;3.25;;;;;5.98;72.09;96741.19;4926876;28;102038;-73
2023/01/16 12:05:56;;;;;;;;;3.50;3.25;;;;;6.06;71.64;96732.88;4963323;28;102144;-73
2023/01/16 12:09:03;;;;;;;;;2.50;2.00;;;;;6.26;71.78;96722.78;4968348;27;102990;-72
2023/01/16 12:14:17;;;;;;;;;3.00;3.00;;;;;6.31;71.94;96734.72;4960408;28;108363;-73
2023/01/16 12:15:01;;;;;;;;;7.75;5.50;;;;;6.05;70.87;96719.66;4963144;28;102210;-73
2023/01/16 12:17:50;;;;;;;;;4.00;3.00;;;;;6.06;72.30;96714.09;4971772;28;102178;-73
2023/01/16 12:20:30;;;;;;;;;6.00;6.00;;;;;5.89;73.06;96709.50;4965074;28;102180;-72
2023/01/16 12:23:16;;;;;;;;;5.00;3.25;;;;;5.82;73.15;96690.72;4965223;28;108539;-73
2023/01/16 12:26:16;;;;;;;;;4.00;2.50;;;;;5.66;73.73;96683.22;4956244;28;102281;-73
2023/01/16 12:29:09;;;;;;;;;4.00;4.00;;;;;5.64;73.17;96671.88;4967534;28;102367;-73
2023/01/16 12:32:04;;;;;;;;;4.50;3.00;;;;;5.69;75.37;96664.84;4967865;28;102346;-73
2023/01/16 12:35:00;;;;;;;;;3.25;3.25;;;;;5.83;74.20;96662.88;4969013;28;108638;-73
2023/01/16 12:38:09;;;;;;;;;8.00;6.50;;;;;5.68;73.15;96655.13;4980560;27;102828;-73
2023/01/16 12:44:09;;;;;;;;;6.75;2.75;;;;;5.81;72.05;96648.84;4942754;28;102317;-73
2023/01/16 12:46:48;;;;;;;;;4.25;4.25;;;;;5.80;72.25;96647.22;4958389;28;107921;-73
2023/01/16 12:49:30;;;;;;;;;4.25;4.25;;;;;5.70;73.07;96631.63;4967046;28;101937;-73
2023/01/16 12:52:04;;;;;;;;;3.00;2.00;;;;;5.84;72.49;96641.22;4962519;28;102219;-73
2023/01/16 12:54:47;;;;;;;;;2.75;2.00;;;;;5.94;72.12;96632.69;4955016;27;102087;-73
2023/01/16 12:57:41;;;;;;;;;3.00;2.00;;;;;6.00;72.62;96631.81;4973665;28;104010;-73
2023/01/16 13:00:22;;;;;;;;;3.00;3.00;;;;;5.87;72.90;96641.81;4963183;28;102190;-73